Time;durP1;ratioP1;P1;durP2;ratioP2;P2;SDS_P1;SDS_P2;PMS_P1;PMS_P2;Temp;Humidity;BMP_temperature;BMP_pressure;BME280_temperature;BME280_humidity;BME280_pressure;Samples;Min_cycle;Max_cycle;Signal;HPM_P1;HPM_P2
2022/12/18 00:00:46;;;;;;;44.08;20.30;;;;;;;-13.58;100.00;99896.28;4199287;28;20047;-73
2022/12/18 00:02:47;;;;;;;37.75;18.63;;;;;;;-13.59;100.00;99895.47;4201231;28;20052;-73
2022/12/18 00:04:47;;;;;;;49.78;20.45;;;;;;;-13.52;100.00;99895.53;4201113;28;20054;-73
2022/12/18 00:06:47;;;;;;;42.80;19.05;;;;;;;-13.57;100.00;99890.75;4201303;28;20055;-73
2022/12/18 00:08:48;;;;;;;41.38;19.40;;;;;;;-13.57;100.00;99889.94;4200503;28;20048;-73
2022/12/18 00:10:48;;;;;;;40.20;19.10;;;;;;;-13.62;100.00;99880.69;4201728;28;20507;-73
2022/12/18 00:12:49;;;;;;;37.25;16.73;;;;;;;-13.68;100.00;99891.25;4198195;28;20192;-73
2022/12/18 00:14:49;;;;;;;39.35;19.55;;;;;;;-13.62;100.00;99896.66;4202108;28;20044;-73
2022/12/18 00:16:49;;;;;;;41.85;19.67;;;;;;;-13.53;100.00;99894.72;4200844;28;20047;-73
2022/12/18 00:18:52;;;;;;;39.53;20.73;;;;;;;-13.56;100.00;99907.59;4200107;28;20155;-73
2022/12/18 00:20:52;;;;;;;44.00;21.08;;;;;;;-13.61;100.00;99905.47;4201008;28;20044;-73
2022/12/18 00:22:53;;;;;;;39.20;18.98;;;;;;;-13.80;100.00;99906.91;4198391;28;20074;-73
2022/12/18 00:24:54;;;;;;;45.60;21.35;;;;;;;-13.95;100.00;99919.38;4199384;28;20132;-73
2022/12/18 00:26:54;;;;;;;35.75;18.77;;;;;;;-14.14;100.00;99917.28;4200474;28;20395;-73
2022/12/18 00:28:57;;;;;;;37.85;18.52;;;;;;;-14.22;100.00;99919.03;4201187;28;20055;-73
2022/12/18 00:31:01;;;;;;;38.63;17.73;;;;;;;-14.28;100.00;99918.94;4199298;28;20055;-73
2022/12/18 00:33:02;;;;;;;43.42;18.08;;;;;;;-14.34;100.00;99917.81;4199884;28;20052;-73
2022/12/18 00:35:03;;;;;;;37.63;18.70;;;;;;;-14.40;100.00;99918.53;4200502;28;20379;-73
2022/12/18 00:37:03;;;;;;;42.85;18.20;;;;;;;-14.47;100.00;99918.50;4198834;28;20087;-73
2022/12/18 00:39:05;;;;;;;38.05;17.15;;;;;;;-14.50;100.00;99918.00;4199923;28;20539;-73
2022/12/18 00:41:06;;;;;;;35.13;15.02;;;;;;;-14.54;100.00;99911.44;4199330;28;20044;-73
2022/12/18 00:43:06;;;;;;;33.22;16.60;;;;;;;-14.55;100.00;99912.44;4202349;28;20051;-73
2022/12/18 00:45:07;;;;;;;33.42;16.50;;;;;;;-14.61;100.00;99918.47;4202574;28;20036;-73
2022/12/18 00:47:07;;;;;;;30.90;12.68;;;;;;;-14.62;100.00;99922.13;4202164;28;20093;-73
2022/12/18 00:49:08;;;;;;;33.17;15.05;;;;;;;-14.62;100.00;99933.59;4203322;28;20044;-73
2022/12/18 00:51:08;;;;;;;24.92;12.80;;;;;;;-14.69;100.00;99921.19;4201415;28;20052;-73
2022/12/18 00:53:10;;;;;;;25.90;13.07;;;;;;;-14.71;100.00;99924.03;4202464;28;20039;-73
2022/12/18 00:55:10;;;;;;;26.90;14.17;;;;;;;-14.72;100.00;99918.91;4203313;28;20082;-73
2022/12/18 00:57:11;;;;;;;26.20;14.35;;;;;;;-14.70;100.00;99928.34;4201889;28;20044;-73
2022/12/18 00:59:11;;;;;;;35.13;15.85;;;;;;;-14.76;100.00;99927.22;4202554;28;20048;-73
2022/12/18 01:01:11;;;;;;;29.40;14.40;;;;;;;-14.77;100.00;99933.53;4202330;28;20117;-73
2022/12/18 01:03:15;;;;;;;29.25;13.80;;;;;;;-14.78;100.00;99929.25;4201868;28;20048;-73
2022/12/18 01:05:15;;;;;;;26.63;12.80;;;;;;;-14.77;100.00;99932.72;4202038;28;20040;-73
2022/12/18 01:07:15;;;;;;;35.13;16.15;;;;;;;-14.82;100.00;99937.72;4203688;28;20130;-73
2022/12/18 01:09:16;;;;;;;36.15;15.60;;;;;;;-14.83;100.00;99934.25;4202984;28;20051;-73
2022/12/18 01:11:19;;;;;;;36.75;16.48;;;;;;;-14.93;100.00;99933.69;4202548;28;20505;-73
2022/12/18 01:13:19;;;;;;;34.33;15.40;;;;;;;-15.02;100.00;99934.75;4202000;28;20467;-73
2022/12/18 01:15:20;;;;;;;35.60;16.85;;;;;;;-15.06;100.00;99925.47;4201216;28;20080;-73
2022/12/18 01:17:21;;;;;;;32.63;14.93;;;;;;;-15.07;100.00;99937.94;4203455;28;20242;-73
2022/12/18 01:19:21;;;;;;;28.35;13.60;;;;;;;-15.07;100.00;99935.28;4201464;28;20476;-73
2022/12/18 01:21:23;;;;;;;27.70;13.82;;;;;;;-15.04;100.00;99939.41;4190657;28;20486;-73
2022/12/18 01:23:27;;;;;;;28.05;15.43;;;;;;;-15.04;100.00;99940.25;4200471;28;20056;-73
2022/12/18 01:25:27;;;;;;;33.55;15.10;;;;;;;-15.00;100.00;99948.66;4201461;28;20078;-73
2022/12/18 01:27:27;;;;;;;36.97;17.30;;;;;;;-15.02;100.00;99941.91;4201493;28;20466;-75
2022/12/18 01:29:28;;;;;;;41.55;16.08;;;;;;;-15.05;100.00;99945.75;4203336;28;20109;-74
2022/12/18 01:31:31;;;;;;;36.65;17.70;;;;;;;-15.04;100.00;99945.56;4201835;28;20083;-75
2022/12/18 01:33:32;;;;;;;45.38;20.92;;;;;;;-15.09;100.00;99957.69;4201292;28;20077;-73
2022/12/18 01:35:32;;;;;;;50.05;19.70;;;;;;;-15.12;100.00;99952.75;4200807;28;20526;-74
2022/12/18 01:37:33;;;;;;;48.83;19.40;;;;;;;-15.10;100.00;99959.53;4202667;28;20619;-73
2022/12/18 01:39:33;;;;;;;42.03;17.85;;;;;;;-15.11;100.00;99951.75;4201917;28;20379;-73
2022/12/18 01:43:57;;;;;;;36.28;16.20;;;;;;;-15.20;100.00;99953.63;4201800;28;20129;-73
2022/12/18 01:45:59;;;;;;;42.00;15.82;;;;;;;-15.23;100.00;99967.25;4202357;28;20045;-73
2022/12/18 01:48:03;;;;;;;33.53;15.32;;;;;;;-15.21;100.00;99964.44;4202338;28;20036;-73
2022/12/18 01:50:09;;;;;;;36.92;16.85;;;;;;;-15.13;100.00;99967.03;4200250;28;20101;-73
2022/12/18 01:52:09;;;;;;;34.33;15.35;;;;;;;-15.17;100.00;99963.88;4201548;28;20020;-73
2022/12/18 01:54:09;;;;;;;38.67;16.83;;;;;;;-15.13;100.00;99957.25;4200787;28;20020;-73
2022/12/18 01:56:14;;;;;;;41.25;18.02;;;;;;;-15.20;100.00;99952.81;4201150;28;20447;-73
2022/12/18 01:58:15;;;;;;;37.67;16.48;;;;;;;-15.09;100.00;99955.03;4201708;28;20367;-73
2022/12/18 02:00:20;;;;;;;42.75;17.38;;;;;;;-15.13;100.00;99959.91;4201233;28;20054;-74
2022/12/18 02:02:21;;;;;;;35.70;16.83;;;;;;;-15.01;100.00;99957.66;4199931;28;20062;-73
2022/12/18 02:04:23;;;;;;;30.95;14.50;;;;;;;-14.94;100.00;99955.94;4201821;28;20049;-74
2022/12/18 02:06:32;;;;;;;38.55;17.95;;;;;;;-14.91;100.00;99960.88;4201580;28;20134;-74
2022/12/18 02:08:38;;;;;;;36.60;15.00;;;;;;;-14.86;100.00;99966.50;4199543;28;20473;-73
2022/12/18 02:10:59;;;;;;;37.15;15.90;;;;;;;-14.83;100.00;99963.47;4201326;28;20054;-74
2022/12/18 02:13:04;;;;;;;40.33;15.35;;;;;;;-14.87;100.00;99959.53;4200900;28;20388;-74
2022/12/18 02:15:18;;;;;;;40.97;16.30;;;;;;;-14.72;100.00;99964.09;4200924;28;20288;-73
2022/12/18 02:17:22;;;;;;;38.45;17.15;;;;;;;-14.64;100.00;99954.22;4200866;28;20487;-74
2022/12/18 02:19:53;;;;;;;43.08;16.98;;;;;;;-14.65;100.00;99959.69;4201223;28;20070;-74
2022/12/18 02:22:24;;;;;;;34.60;15.27;;;;;;;-14.71;100.00;99961.25;4200676;28;20060;-73
2022/12/18 02:24:32;;;;;;;33.13;13.55;;;;;;;-14.79;100.00;99953.34;4200758;28;20134;-74
2022/12/18 02:26:38;;;;;;;36.35;14.98;;;;;;;-14.88;100.00;99952.56;4201412;28;20399;-74
2022/12/18 02:28:46;;;;;;;32.55;15.90;;;;;;;-15.00;100.00;99951.31;4201406;28;20489;-73
2022/12/18 02:30:49;;;;;;;25.20;12.68;;;;;;;-15.03;100.00;99951.69;4201781;28;20755;-73
2022/12/18 02:32:53;;;;;;;36.45;15.80;;;;;;;-15.01;100.00;99951.50;4201363;28;20067;-73
2022/12/18 02:34:56;;;;;;;36.75;14.93;;;;;;;-15.04;100.00;99947.38;4202372;28;20135;-73
2022/12/18 02:37:01;;;;;;;42.13;17.50;;;;;;;-15.05;100.00;99951.88;4202119;28;20464;-73
2022/12/18 02:39:05;;;;;;;44.78;16.83;;;;;;;-15.12;100.00;99950.09;4199555;28;20048;-73
2022/12/18 02:41:06;;;;;;;44.72;15.77;;;;;;;-15.18;100.00;99940.19;4201766;28;20083;-74
2022/12/18 02:43:11;;;;;;;28.17;13.38;;;;;;;-15.19;100.00;99943.84;4198547;28;20212;-73
2022/12/18 02:45:12;;;;;;;35.28;15.27;;;;;;;-15.21;100.00;99945.84;4202396;28;20754;-73
2022/12/18 02:47:15;;;;;;;42.25;15.27;;;;;;;-15.22;100.00;99953.00;4202963;28;20468;-74
2022/12/18 02:49:30;;;;;;;33.55;16.40;;;;;;;-15.22;100.00;99950.34;4199492;28;20036;-73
2022/12/18 02:51:47;;;;;;;31.25;14.65;;;;;;;-15.26;100.00;99945.53;4201108;28;20419;-73
2022/12/18 02:53:56;;;;;;;33.22;14.30;;;;;;;-15.26;100.00;99956.16;4199859;28;20476;-73
2022/12/18 02:56:09;;;;;;;32.55;12.95;;;;;;;-15.30;100.00;99955.69;4201779;28;20051;-73
2022/12/18 02:58:19;;;;;;;31.35;15.40;;;;;;;-15.31;100.00;99949.53;4201635;28;20043;-73
2022/12/18 03:00:24;;;;;;;32.83;14.60;;;;;;;-15.32;100.00;99944.41;4200139;28;20483;-73
2022/12/18 03:02:34;;;;;;;30.92;13.70;;;;;;;-15.28;100.00;99951.03;4200900;28;20044;-73
2022/12/18 03:04:52;;;;;;;38.13;16.00;;;;;;;-15.17;100.00;99955.09;4199181;28;20052;-73
2022/12/18 03:06:58;;;;;;;26.05;13.40;;;;;;;-14.94;100.00;99942.66;4200488;28;20052;-73
2022/12/18 03:09:13;;;;;;;27.48;14.48;;;;;;;-14.87;100.00;99943.59;4199739;28;20480;-73
2022/12/18 03:11:14;;;;;;;33.53;12.88;;;;;;;-14.78;100.00;99944.34;4199278;28;20044;-74
2022/12/18 03:13:27;;;;;;;33.45;13.95;;;;;;;-14.66;100.00;99939.44;4200584;28;20039;-74
2022/12/18 03:15:33;;;;;;;32.65;13.75;;;;;;;-14.57;100.00;99947.13;4199280;28;20053;-74
2022/12/18 03:17:36;;;;;;;33.92;13.80;;;;;;;-14.59;100.00;99953.66;4200965;28;20052;-73
2022/12/18 03:19:39;;;;;;;30.67;15.43;;;;;;;-14.67;100.00;99961.69;4199595;28;20045;-73
2022/12/18 03:21:49;;;;;;;27.33;13.30;;;;;;;-14.76;100.00;99956.44;4200867;28;20396;-73
2022/12/18 03:23:52;;;;;;;36.17;14.32;;;;;;;-14.83;100.00;99965.31;4200254;28;20224;-74
2022/12/18 03:25:59;;;;;;;32.80;15.35;;;;;;;-14.99;100.00;99952.97;4199372;28;20550;-73
2022/12/18 03:28:02;;;;;;;30.98;13.57;;;;;;;-14.99;100.00;99965.44;4199662;28;20094;-73
2022/12/18 03:30:07;;;;;;;32.55;13.10;;;;;;;-15.05;100.00;99970.47;4199846;28;20048;-73
2022/12/18 03:32:12;;;;;;;30.95;12.57;;;;;;;-15.10;100.00;99961.38;4201385;28;20039;-73
2022/12/18 03:34:17;;;;;;;29.00;13.00;;;;;;;-15.21;100.00;99959.13;4199933;28;20039;-74
2022/12/18 03:36:18;;;;;;;33.15;14.02;;;;;;;-15.25;100.00;99952.50;4199755;28;20394;-73
2022/12/18 03:38:19;;;;;;;27.13;13.43;;;;;;;-15.22;100.00;99950.34;4201300;28;20020;-73
2022/12/18 03:40:26;;;;;;;28.77;13.07;;;;;;;-15.19;100.00;99954.47;4200116;28;20039;-74
2022/12/18 03:42:36;;;;;;;28.27;13.30;;;;;;;-15.05;100.00;99959.00;4200002;28;20117;-74
2022/12/18 03:44:45;;;;;;;31.95;14.48;;;;;;;-14.97;100.00;99963.41;4200578;28;20669;-74
2022/12/18 03:47:06;;;;;;;36.25;13.65;;;;;;;-14.92;100.00;99969.03;4198992;28;20055;-74
2022/12/18 03:49:26;;;;;;;33.63;13.18;;;;;;;-15.00;100.00;99969.91;4201099;28;20399;-73
2022/12/18 03:51:37;;;;;;;36.95;13.80;;;;;;;-15.13;100.00;99967.88;4199683;28;20036;-74
2022/12/18 03:53:56;;;;;;;35.45;14.98;;;;;;;-15.27;100.00;99957.16;4200320;28;20125;-74
2022/12/18 03:55:59;;;;;;;38.50;14.32;;;;;;;-15.33;100.00;99958.69;4198523;28;20135;-74
2022/12/18 03:58:01;;;;;;;28.85;13.35;;;;;;;-15.38;100.00;99959.22;4200762;28;20509;-73
2022/12/18 04:00:11;;;;;;;28.27;13.38;;;;;;;-15.33;100.00;99953.38;4199947;28;20051;-73
2022/12/18 04:02:12;;;;;;;30.05;13.15;;;;;;;-15.37;100.00;99952.91;4198049;28;20040;-74
2022/12/18 04:04:14;;;;;;;32.10;14.15;;;;;;;-15.42;100.00;99962.38;4198508;28;20452;-74
2022/12/18 04:06:16;;;;;;;;;;;;;;;-15.48;100.00;99953.28;4201804;28;20513;-74
2022/12/18 04:08:16;;;;;;;40.20;14.63;;;;;;;-15.56;100.00;99961.28;4199376;28;20312;-73
2022/12/18 04:10:18;;;;;;;34.17;15.32;;;;;;;-15.61;100.00;99951.25;4200387;28;20031;-73
2022/12/18 04:12:18;;;;;;;34.20;16.33;;;;;;;-15.63;100.00;99955.09;4197828;28;20089;-73
2022/12/18 04:14:19;;;;;;;32.03;12.82;;;;;;;-15.40;100.00;99958.56;4202272;28;20032;-73
2022/12/18 04:16:19;;;;;;;32.22;15.15;;;;;;;-15.34;100.00;99959.69;4202164;28;20460;-73
2022/12/18 04:18:19;;;;;;;38.30;16.27;;;;;;;-15.31;100.00;99957.50;4205171;28;20035;-73
2022/12/18 04:20:20;;;;;;;25.92;13.18;;;;;;;-15.21;100.00;99961.78;4204644;28;20039;-73
2022/12/18 04:22:21;;;;;;;28.52;15.25;;;;;;;-15.17;100.00;99950.63;4203545;28;20059;-73
2022/12/18 04:24:21;;;;;;;38.97;14.57;;;;;;;-14.94;100.00;99942.66;4204113;28;20093;-73
2022/12/18 04:26:22;;;;;;;41.05;15.88;;;;;;;-14.80;100.00;99944.53;4204744;28;20418;-73
2022/12/18 04:28:22;;;;;;;33.60;14.45;;;;;;;-14.73;100.00;99952.59;4205584;28;20051;-74
2022/12/18 04:30:23;;;;;;;31.80;15.40;;;;;;;-14.82;100.00;99943.03;4204545;28;20056;-73
2022/12/18 04:32:23;;;;;;;29.52;14.05;;;;;;;-14.86;100.00;99949.75;4202746;28;20501;-73
2022/12/18 04:34:23;;;;;;;32.63;14.55;;;;;;;-14.84;100.00;99963.66;4204283;28;20355;-73
2022/12/18 04:36:24;;;;;;;32.67;14.85;;;;;;;-15.00;100.00;99953.97;4202094;28;20063;-74
2022/12/18 04:38:24;;;;;;;30.25;14.88;;;;;;;-15.11;100.00;99944.59;4205252;28;20052;-73
2022/12/18 04:40:24;;;;;;;24.15;11.88;;;;;;;-15.20;100.00;99948.31;4204882;28;20097;-73
2022/12/18 04:42:25;;;;;;;32.42;13.75;;;;;;;-15.19;100.00;99947.31;4203249;28;20047;-73
2022/12/18 04:44:25;;;;;;;32.08;13.40;;;;;;;-15.18;100.00;99948.13;4202853;28;20044;-73
2022/12/18 04:46:25;;;;;;;36.33;15.05;;;;;;;-15.27;100.00;99954.50;4202260;28;20431;-73
2022/12/18 04:48:25;;;;;;;30.38;12.30;;;;;;;-15.35;100.00;99968.66;4205973;28;20036;-74
2022/12/18 04:50:26;;;;;;;30.60;13.13;;;;;;;-15.45;100.00;99979.50;4204913;28;20502;-73
2022/12/18 04:52:27;;;;;;;27.80;13.40;;;;;;;-15.53;100.00;99973.41;4204236;28;20412;-73
2022/12/18 04:54:27;;;;;;;25.50;12.25;;;;;;;-15.66;100.00;99961.53;4202862;28;20419;-73
2022/12/18 04:56:28;;;;;;;31.27;13.95;;;;;;;-15.73;100.00;99957.09;4204062;28;20109;-73
2022/12/18 04:58:28;;;;;;;32.38;13.90;;;;;;;-15.80;100.00;99967.59;4205192;28;20195;-73
2022/12/18 05:00:28;;;;;;;28.58;14.05;;;;;;;-15.82;100.00;99971.41;4204837;28;20496;-73
2022/12/18 05:02:28;;;;;;;25.38;12.75;;;;;;;-15.86;100.00;99967.44;4203982;28;20097;-73
2022/12/18 05:04:29;;;;;;;34.97;14.10;;;;;;;-15.78;100.00;99973.53;4203833;28;20044;-73
2022/12/18 05:06:29;;;;;;;36.38;15.70;;;;;;;-15.75;100.00;99969.72;4204225;28;20144;-73
2022/12/18 05:08:30;;;;;;;30.42;12.95;;;;;;;-15.72;100.00;99979.97;4203450;28;20097;-73
2022/12/18 05:10:30;;;;;;;35.75;15.38;;;;;;;-15.72;100.00;99970.22;4203523;28;20437;-73
2022/12/18 05:12:31;;;;;;;29.98;14.02;;;;;;;-15.76;100.00;99966.22;4202368;28;20047;-73
2022/12/18 05:14:31;;;;;;;28.27;12.38;;;;;;;-15.76;100.00;99968.06;4203961;28;20115;-73
2022/12/18 05:16:31;;;;;;;29.10;13.10;;;;;;;-15.66;100.00;99960.72;4204444;28;20193;-73
2022/12/18 05:18:32;;;;;;;30.45;14.15;;;;;;;-15.33;100.00;99953.38;4203791;28;20082;-73
2022/12/18 05:20:32;;;;;;;27.73;13.10;;;;;;;-15.11;100.00;99962.38;4202142;28;20083;-73
2022/12/18 05:22:33;;;;;;;30.02;13.77;;;;;;;-14.97;100.00;99969.59;4202346;28;20303;-73
2022/12/18 05:24:33;;;;;;;27.35;12.88;;;;;;;-14.91;100.00;99966.19;4202840;28;20074;-73
2022/12/18 05:26:34;;;;;;;26.52;13.32;;;;;;;-15.05;100.00;99959.84;4203417;28;20201;-73
2022/12/18 05:28:35;;;;;;;29.35;12.45;;;;;;;-15.17;100.00;99963.88;4202483;28;20436;-73
2022/12/18 05:30:35;;;;;;;26.65;12.88;;;;;;;-15.23;100.00;99966.41;4201809;28;20092;-73
2022/12/18 05:32:36;;;;;;;30.77;12.95;;;;;;;-15.19;100.00;99967.72;4201974;28;20420;-73
2022/12/18 05:34:36;;;;;;;29.70;12.98;;;;;;;-15.22;100.00;99965.41;4203520;28;20508;-73
2022/12/18 05:36:36;;;;;;;31.27;12.70;;;;;;;-15.42;100.00;99967.69;4203438;28;20471;-73
2022/12/18 05:38:39;;;;;;;27.02;12.18;;;;;;;-15.53;100.00;99966.28;4203437;28;20093;-73
2022/12/18 05:40:42;;;;;;;26.33;12.73;;;;;;;-15.60;100.00;99973.25;4202854;28;20051;-73
2022/12/18 05:42:42;;;;;;;27.92;12.35;;;;;;;-15.64;100.00;99977.28;4201429;28;20461;-73
2022/12/18 05:44:43;;;;;;;27.38;12.88;;;;;;;-15.74;100.00;99974.84;4203789;28;20531;-74
2022/12/18 05:46:43;;;;;;;23.42;10.18;;;;;;;-15.79;100.00;99982.50;4203417;28;20048;-73
2022/12/18 05:48:44;;;;;;;24.58;10.50;;;;;;;-15.83;100.00;99980.34;4203421;28;20394;-73
2022/12/18 05:50:46;;;;;;;18.88;9.73;;;;;;;-15.81;100.00;99979.16;4203361;28;20048;-73
2022/12/18 05:52:47;;;;;;;;;;;;;;;-15.54;100.00;99985.03;4202370;28;20127;-73
2022/12/18 05:54:47;;;;;;;17.08;8.02;;;;;;;-15.36;100.00;99980.28;4203448;28;19982;-73
2022/12/18 05:56:47;;;;;;;17.77;8.25;;;;;;;-15.25;100.00;99987.00;4203389;28;20050;-73
2022/12/18 05:58:51;;;;;;;18.85;9.45;;;;;;;-15.31;100.00;99993.84;4203831;28;20155;-73
2022/12/18 06:00:52;;;;;;;17.48;8.85;;;;;;;-15.51;100.00;99982.00;4201557;28;20120;-73
2022/12/18 06:02:52;;;;;;;21.75;10.10;;;;;;;-15.49;100.00;99983.47;4202934;28;20521;-73
2022/12/18 06:04:52;;;;;;;22.33;8.88;;;;;;;-15.46;100.00;99982.31;4202030;28;20077;-74
2022/12/18 06:06:52;;;;;;;21.25;11.65;;;;;;;-15.40;100.00;99985.09;4203604;28;20495;-73
2022/12/18 06:08:54;;;;;;;21.83;9.45;;;;;;;-15.29;100.00;99983.91;4202843;28;20473;-73
2022/12/18 06:10:54;;;;;;;24.48;10.70;;;;;;;-15.21;100.00;99990.97;4200668;28;20612;-73
2022/12/18 06:12:55;;;;;;;22.20;9.60;;;;;;;-15.25;100.00;99987.00;4202082;28;20048;-73
2022/12/18 06:14:55;;;;;;;21.80;11.10;;;;;;;-15.28;100.00;99990.03;4203756;28;20100;-73
2022/12/18 06:16:55;;;;;;;24.00;12.23;;;;;;;-15.28;100.00;99987.38;4202275;28;20486;-73
2022/12/18 06:18:59;;;;;;;29.20;13.35;;;;;;;-15.38;100.00;99993.72;4203464;28;20089;-73
2022/12/18 06:21:00;;;;;;;25.10;12.02;;;;;;;-15.40;100.00;99989.56;4202162;28;20048;-73
2022/12/18 06:23:00;;;;;;;28.77;13.15;;;;;;;-15.39;100.00;100002.69;4202128;28;20052;-73
2022/12/18 06:25:01;;;;;;;33.95;13.43;;;;;;;-15.40;100.00;99998.34;4202143;28;20076;-73
2022/12/18 06:27:02;;;;;;;31.88;14.60;;;;;;;-15.40;100.00;100003.66;4201640;28;20076;-73
2022/12/18 06:29:02;;;;;;;30.92;12.73;;;;;;;-15.50;100.00;100004.88;4204012;28;20051;-73
2022/12/18 06:31:04;;;;;;;28.90;14.40;;;;;;;-15.68;100.00;100002.50;4203171;28;20054;-73
2022/12/18 06:33:04;;;;;;;33.55;12.98;;;;;;;-15.79;100.00;100000.25;4202985;28;20047;-73
2022/12/18 06:35:05;;;;;;;31.20;12.55;;;;;;;-15.89;100.00;99995.13;4202856;28;20488;-74
2022/12/18 06:37:06;;;;;;;25.52;12.95;;;;;;;-15.74;100.00;100001.38;4201966;28;20044;-73
2022/12/18 06:39:06;;;;;;;27.67;12.05;;;;;;;-15.85;100.00;99993.78;4200834;28;20127;-73
2022/12/18 06:41:16;;;;;;;34.60;13.90;;;;;;;-15.99;100.00;99997.13;4200801;28;20514;-73
2022/12/18 06:43:16;;;;;;;22.50;12.20;;;;;;;-16.05;100.00;99997.81;4201552;28;20101;-73
2022/12/18 06:45:17;;;;;;;21.85;11.32;;;;;;;-15.84;100.00;99999.91;4202508;28;20485;-73
2022/12/18 06:47:18;;;;;;;27.33;13.40;;;;;;;-15.87;100.00;99992.31;4201863;28;20268;-73
2022/12/18 06:49:18;;;;;;;24.17;11.27;;;;;;;-15.91;100.00;99994.47;4201683;28;20044;-73
2022/12/18 06:51:23;;;;;;;24.98;12.10;;;;;;;-15.86;100.00;99980.72;4200367;28;20276;-73
2022/12/18 06:53:24;;;;;;;24.38;11.15;;;;;;;-15.67;100.00;99980.28;4199722;28;20553;-73
2022/12/18 06:55:24;;;;;;;24.60;11.75;;;;;;;-15.58;100.00;99975.75;4201307;28;20115;-73
2022/12/18 06:57:24;;;;;;;24.27;10.95;;;;;;;-15.62;100.00;99972.66;4149645;28;20136;-73
2022/12/18 06:59:25;;;;;;;29.40;12.50;;;;;;;-15.71;100.00;99971.03;4146986;28;20117;-73
2022/12/18 07:01:25;;;;;;;29.17;13.98;;;;;;;-15.73;100.00;99980.97;4200627;28;20395;-73
2022/12/18 07:03:25;;;;;;;25.88;12.20;;;;;;;-15.87;100.00;99985.19;4198433;28;20037;-73
2022/12/18 07:05:26;;;;;;;27.70;13.05;;;;;;;-16.02;100.00;99989.53;4202384;28;20433;-73
2022/12/18 07:07:26;;;;;;;26.33;12.38;;;;;;;-15.82;100.00;99985.47;4202408;28;20395;-73
2022/12/18 07:09:26;;;;;;;28.05;14.13;;;;;;;-15.72;100.00;99987.94;4202334;28;20079;-74
2022/12/18 07:11:27;;;;;;;28.92;14.60;;;;;;;-15.50;100.00;99987.13;4201000;28;20514;-73
2022/12/18 07:13:27;;;;;;;25.92;11.82;;;;;;;-15.44;100.00;99988.28;4200890;28;20508;-74
2022/12/18 07:15:27;;;;;;;35.28;12.55;;;;;;;-15.47;100.00;99993.91;4201889;28;20573;-74
2022/12/18 07:17:29;;;;;;;27.08;13.32;;;;;;;-15.58;100.00;99994.31;4203619;28;20184;-73
2022/12/18 07:19:29;;;;;;;27.88;13.88;;;;;;;-15.61;100.00;100003.50;4202355;28;20397;-73
2022/12/18 07:21:29;;;;;;;29.35;12.75;;;;;;;-15.59;100.00;100004.09;4201265;28;20044;-74
2022/12/18 07:23:31;;;;;;;30.00;13.13;;;;;;;-15.60;100.00;100005.09;4201820;28;20040;-74
2022/12/18 07:25:36;;;;;;;24.20;13.25;;;;;;;-15.74;100.00;100011.97;4201327;28;20052;-73
2022/12/18 07:27:36;;;;;;;34.35;16.23;;;;;;;-15.86;100.00;100016.00;4202970;28;20142;-73
2022/12/18 07:29:36;;;;;;;34.53;17.45;;;;;;;-15.92;100.00;100021.97;4200975;28;20491;-73
2022/12/18 07:31:37;;;;;;;33.88;15.10;;;;;;;-16.04;100.00;100029.47;4197032;28;20047;-73
2022/12/18 07:33:37;;;;;;;42.03;17.75;;;;;;;-16.07;100.00;100036.94;4197799;28;20453;-73
2022/12/18 07:35:38;;;;;;;27.50;12.75;;;;;;;-16.14;100.00;100030.66;4200093;28;20087;-73
2022/12/18 07:37:38;;;;;;;20.90;11.60;;;;;;;-16.16;100.00;100038.75;4200416;28;20510;-73
2022/12/18 07:39:38;;;;;;;29.85;13.88;;;;;;;-16.27;100.00;100029.34;4202674;28;20115;-73
2022/12/18 07:41:42;;;;;;;23.13;11.30;;;;;;;-16.26;100.00;100035.47;4200140;28;20070;-73
2022/12/18 07:43:42;;;;;;;30.10;14.18;;;;;;;-16.27;100.00;100033.81;4199665;28;20489;-73
2022/12/18 07:45:43;;;;;;;34.35;14.95;;;;;;;-16.25;100.00;100045.91;4200789;28;20045;-73
2022/12/18 07:47:43;;;;;;;33.97;15.88;;;;;;;-16.21;100.00;100055.19;4201234;28;20495;-73
2022/12/18 07:49:44;;;;;;;34.80;15.88;;;;;;;-16.21;100.00;100049.06;4200962;28;20453;-73
2022/12/18 07:51:48;;;;;;;33.42;16.30;;;;;;;-16.17;100.00;100050.38;4204179;28;20117;-73
2022/12/18 07:53:49;;;;;;;49.25;18.70;;;;;;;-16.08;100.00;100051.19;4203683;28;20424;-73
2022/12/18 07:55:54;;;;;;;41.13;19.67;;;;;;;-16.03;100.00;100057.66;4204873;28;20072;-73
2022/12/18 07:57:54;;;;;;;50.08;20.38;;;;;;;-15.98;100.00;100057.13;4202963;28;20423;-73
2022/12/18 07:59:54;;;;;;;37.28;19.15;;;;;;;-15.96;100.00;100053.34;4206168;28;20056;-73
2022/12/18 08:01:55;;;;;;;51.70;18.80;;;;;;;-15.84;100.00;100055.63;4206776;28;20052;-73
2022/12/18 08:03:56;;;;;;;28.40;14.93;;;;;;;-15.81;100.00;100057.91;4203317;28;20055;-73
2022/12/18 08:06:01;;;;;;;44.40;19.70;;;;;;;-15.74;100.00;100074.81;4204465;28;20100;-73
2022/12/18 08:08:01;;;;;;;36.58;16.77;;;;;;;-15.67;100.00;100071.31;4202875;28;20067;-73
2022/12/18 08:10:02;;;;;;;38.22;17.88;;;;;;;-15.61;100.00;100075.94;4203927;28;20028;-73
2022/12/18 08:12:02;;;;;;;36.53;16.10;;;;;;;-15.60;100.00;100077.56;4205185;28;20532;-73
2022/12/18 08:14:02;;;;;;;33.25;13.25;;;;;;;-15.57;100.00;100084.34;4202706;28;20024;-73
2022/12/18 08:16:07;;;;;;;24.90;12.77;;;;;;;-15.62;100.00;100079.59;4202569;28;20112;-73
2022/12/18 08:18:07;;;;;;;33.70;14.27;;;;;;;-15.57;100.00;100075.56;4206136;28;20898;-74
2022/12/18 08:20:08;;;;;;;47.97;20.55;;;;;;;-15.58;100.00;100077.38;4200212;28;20040;-73
2022/12/18 08:22:08;;;;;;;32.97;14.88;;;;;;;-15.58;100.00;100073.91;4201936;28;20039;-73
2022/12/18 08:24:09;;;;;;;33.38;15.48;;;;;;;-15.61;100.00;100067.16;4201729;28;20031;-73
2022/12/18 08:26:11;;;;;;;39.60;15.27;;;;;;;-15.57;100.00;100073.72;4202974;28;20024;-73
2022/12/18 08:28:11;;;;;;;32.60;13.70;;;;;;;-15.52;100.00;100079.38;4203909;28;20027;-73
2022/12/18 08:30:12;;;;;;;36.35;14.85;;;;;;;-15.48;100.00;100070.06;4203921;28;20027;-73
2022/12/18 08:32:12;;;;;;;31.67;14.02;;;;;;;-15.36;100.00;100066.03;4204443;28;20024;-73
2022/12/18 08:34:12;;;;;;;45.25;18.23;;;;;;;-15.22;100.00;100064.50;4200607;28;20036;-73
2022/12/18 08:36:13;;;;;;;35.72;15.23;;;;;;;-15.17;100.00;100059.47;4203767;28;20070;-73
2022/12/18 08:38:13;;;;;;;39.63;13.80;;;;;;;-15.13;100.00;100052.00;4203702;28;20070;-73
2022/12/18 08:40:14;;;;;;;32.38;14.35;;;;;;;-15.10;100.00;100041.03;4202380;28;20027;-73
2022/12/18 08:44:39;;;;;;;28.13;11.95;;;;;;;-14.99;100.00;100045.09;4149742;28;20062;-73
2022/12/18 08:46:41;;;;;;;30.08;14.77;;;;;;;-14.86;100.00;100045.38;4203651;28;20072;-73
2022/12/18 08:48:42;;;;;;;34.42;14.70;;;;;;;-14.76;100.00;100033.50;4202726;28;20062;-73
2022/12/18 08:50:42;;;;;;;46.53;21.48;;;;;;;-14.67;100.00;100036.91;4202365;28;20498;-73
2022/12/18 08:52:42;;;;;;;38.08;16.73;;;;;;;-14.56;100.00;100033.88;4203678;28;20052;-73
2022/12/18 08:54:43;;;;;;;33.63;16.20;;;;;;;-14.51;100.00;100042.13;4203657;28;20072;-73
2022/12/18 08:56:43;;;;;;;45.15;21.08;;;;;;;-14.38;100.00;100044.16;4204043;27;20139;-73
2022/12/18 08:58:44;;;;;;;46.05;21.35;;;;;;;-14.19;100.00;100042.81;4175490;28;20060;-73
2022/12/18 09:00:44;;;;;;;45.78;21.17;;;;;;;-14.10;100.00;100035.59;4204482;28;20044;-73
2022/12/18 09:02:44;;;;;;;40.38;21.40;;;;;;;-14.08;100.00;100038.88;4200364;28;20055;-73
2022/12/18 09:04:47;;;;;;;38.25;20.27;;;;;;;-14.10;100.00;100030.28;4205166;28;20040;-73
2022/12/18 09:06:47;;;;;;;75.38;31.45;;;;;;;-14.16;100.00;100034.47;4203534;28;20047;-73
2022/12/18 09:08:48;;;;;;;61.63;28.17;;;;;;;-14.11;100.00;100037.44;4203806;28;20430;-73
2022/12/18 09:10:50;;;;;;;60.92;22.17;;;;;;;-14.11;100.00;100047.25;4202780;28;20052;-73
2022/12/18 09:12:50;;;;;;;37.50;17.60;;;;;;;-14.07;100.00;100036.03;4199520;28;20071;-73